Time;durP1;ratioP1;P1;durP2;ratioP2;P2;SDS_P1;SDS_P2;PMS_P1;PMS_P2;Temp;Humidity;BMP_temperature;BMP_pressure;BME280_temperature;BME280_humidity;BME280_pressure;Samples;Min_cycle;Max_cycle;Signal;HPM_P1;HPM_P2
2022/10/02 00:02:20;;;;;;;3.77;3.40;;;12.00;99.90;;;;;;5017372;28;20469;-73
2022/10/02 00:05:18;;;;;;;10.77;3.50;;;12.00;99.90;;;;;;5019647;28;20865;-73
2022/10/02 00:07:50;;;;;;;5.23;3.30;;;12.00;99.90;;;;;;5021348;28;20519;-73
2022/10/02 00:10:30;;;;;;;7.97;2.93;;;12.00;99.90;;;;;;5021904;28;20884;-73
2022/10/02 00:13:00;;;;;;;7.13;3.70;;;12.00;99.90;;;;;;5014857;28;20479;-73
2022/10/02 00:15:28;;;;;;;6.20;3.20;;;12.10;99.90;;;;;;5022348;28;20929;-73
2022/10/02 00:18:01;;;;;;;9.37;3.83;;;12.10;99.90;;;;;;5019630;28;20508;-73
2022/10/02 00:20:38;;;;;;;5.87;3.80;;;12.10;99.90;;;;;;5019097;28;20540;-73
2022/10/02 00:23:10;;;;;;;5.47;3.63;;;12.10;99.90;;;;;;5024714;28;20464;-73
2022/10/02 00:25:58;;;;;;;5.90;2.70;;;12.10;99.90;;;;;;5022035;28;20460;-73
2022/10/02 00:28:34;;;;;;;7.07;3.20;;;12.10;99.90;;;;;;5034006;28;20441;-73
2022/10/02 00:31:05;;;;;;;5.80;3.00;;;12.10;99.90;;;;;;5016208;28;20445;-73
2022/10/02 00:33:42;;;;;;;5.13;3.10;;;12.10;99.90;;;;;;5025185;28;20468;-73
2022/10/02 00:36:16;;;;;;;9.63;3.17;;;12.10;99.90;;;;;;5019857;28;20886;-73
2022/10/02 00:39:18;;;;;;;10.53;3.80;;;12.10;99.90;;;;;;5017947;28;20446;-73
2022/10/02 00:42:06;;;;;;;6.50;3.00;;;12.10;99.90;;;;;;5013357;28;20468;-73
2022/10/02 00:44:55;;;;;;;6.07;3.03;;;12.10;99.90;;;;;;5020554;28;20461;-73
2022/10/02 00:47:51;;;;;;;7.07;2.80;;;12.30;99.90;;;;;;5018580;28;20947;-73
2022/10/02 00:50:26;;;;;;;8.13;3.27;;;12.10;99.90;;;;;;5012992;28;20441;-73
2022/10/02 00:53:20;;;;;;;11.33;3.73;;;12.10;99.90;;;;;;5021447;28;20441;-74
2022/10/02 00:56:03;;;;;;;5.00;2.90;;;12.10;99.90;;;;;;5018215;28;20472;-75
2022/10/02 00:58:47;;;;;;;7.40;2.97;;;12.20;99.90;;;;;;5021044;28;20498;-73
2022/10/02 01:01:18;;;;;;;6.50;3.23;;;12.20;99.90;;;;;;5019368;28;21074;-75
2022/10/02 01:03:52;;;;;;;4.57;2.93;;;12.10;99.90;;;;;;5025168;28;20492;-75
2022/10/02 01:06:18;;;;;;;4.27;2.60;;;12.20;99.90;;;;;;5022524;28;20441;-75
2022/10/02 01:08:44;;;;;;;6.77;3.37;;;12.20;99.90;;;;;;5023458;28;20966;-75
2022/10/02 01:11:09;;;;;;;3.13;2.60;;;12.20;99.90;;;;;;5019628;28;20437;-73
2022/10/02 01:13:35;;;;;;;7.10;4.23;;;12.20;99.90;;;;;;5020592;28;20179;-73
2022/10/02 01:16:02;;;;;;;6.63;2.93;;;12.20;99.90;;;;;;5023365;28;20240;-73
2022/10/02 01:18:29;;;;;;;5.07;3.30;;;12.20;99.90;;;;;;5014430;28;20637;-73
2022/10/02 01:21:05;;;;;;;4.73;2.87;;;12.20;99.90;;;;;;5021171;28;20502;-73
2022/10/02 01:23:52;;;;;;;5.77;2.80;;;12.30;99.90;;;;;;5009390;28;20464;-73
2022/10/02 01:26:18;;;;;;;6.13;2.73;;;12.30;99.90;;;;;;5015905;28;20494;-73
2022/10/02 01:28:44;;;;;;;5.80;2.70;;;12.30;99.90;;;;;;5011303;28;20989;-73
2022/10/02 01:31:12;;;;;;;3.30;3.00;;;12.30;99.90;;;;;;5009115;28;20469;-73
2022/10/02 01:33:41;;;;;;;10.17;2.90;;;12.30;99.90;;;;;;5010023;28;20182;-73
2022/10/02 01:36:09;;;;;;;8.60;2.80;;;12.30;99.90;;;;;;5009973;28;20514;-75
2022/10/02 01:38:35;;;;;;;10.60;3.00;;;12.30;99.90;;;;;;5010036;28;20441;-73
2022/10/02 01:41:01;;;;;;;3.93;2.90;;;12.30;99.90;;;;;;5013611;28;20445;-73
2022/10/02 01:43:43;;;;;;;8.60;2.90;;;12.30;99.90;;;;;;5019571;28;20470;-73
2022/10/02 01:46:38;;;;;;;8.87;3.33;;;12.30;99.90;;;;;;5013824;28;20271;-73
2022/10/02 01:49:16;;;;;;;5.60;2.87;;;12.30;99.90;;;;;;5010348;28;20839;-73
2022/10/02 01:52:07;;;;;;;7.30;2.80;;;12.30;99.90;;;;;;5011649;28;20438;-73
2022/10/02 01:54:53;;;;;;;4.63;3.43;;;12.30;99.90;;;;;;5024189;28;20492;-69
2022/10/02 01:57:34;;;;;;;5.97;2.80;;;12.30;99.90;;;;;;5011407;28;20434;-73
2022/10/02 02:00:07;;;;;;;4.67;3.10;;;12.40;99.90;;;;;;5013297;28;20441;-73
2022/10/02 02:02:54;;;;;;;2.83;2.50;;;12.40;99.90;;;;;;5018701;28;20468;-73
2022/10/02 02:05:23;;;;;;;5.87;3.20;;;12.40;99.90;;;;;;5016967;28;20455;-73
2022/10/02 02:07:55;;;;;;;9.60;3.27;;;12.40;99.90;;;;;;5022138;28;20861;-74
2022/10/02 02:10:44;;;;;;;7.10;3.63;;;12.30;99.90;;;;;;5018046;28;20518;-74
2022/10/02 02:13:29;;;;;;;5.80;2.63;;;12.30;99.90;;;;;;5010803;28;20469;-72
2022/10/02 02:16:07;;;;;;;6.70;3.50;;;12.30;99.90;;;;;;5007844;28;20465;-74
2022/10/02 02:18:45;;;;;;;4.70;3.30;;;12.30;99.90;;;;;;5005168;28;20446;-73
2022/10/02 02:21:29;;;;;;;6.97;3.33;;;12.30;99.90;;;;;;5009108;28;20445;-73
2022/10/02 02:23:58;;;;;;;8.10;2.90;;;12.40;99.90;;;;;;5010713;28;20511;-76
2022/10/02 02:26:26;;;;;;;3.33;2.60;;;12.40;99.90;;;;;;5016896;28;20500;-76
2022/10/02 02:28:57;;;;;;;3.40;3.00;;;12.40;99.90;;;;;;5008241;28;20935;-76
2022/10/02 02:31:29;;;;;;;4.87;2.70;;;12.40;99.90;;;;;;5002533;28;20442;-76
2022/10/02 02:33:59;;;;;;;8.03;2.93;;;12.40;99.90;;;;;;5007575;28;20446;-75
2022/10/02 02:36:39;;;;;;;9.70;3.57;;;12.40;99.90;;;;;;5009619;28;20950;-76
2022/10/02 02:39:17;;;;;;;10.23;3.67;;;12.40;99.90;;;;;;5010686;28;21055;-75
2022/10/02 02:41:57;;;;;;;9.90;3.10;;;12.40;99.90;;;;;;5009657;28;20457;-75
2022/10/02 02:44:40;;;;;;;6.43;3.07;;;12.40;99.90;;;;;;5012786;28;20457;-75
2022/10/02 02:47:18;;;;;;;8.40;4.40;;;12.40;99.90;;;;;;5008831;28;20445;-74
2022/10/02 02:49:48;;;;;;;3.30;3.00;;;12.40;99.90;;;;;;5009129;28;20465;-74
2022/10/02 02:52:24;;;;;;;8.63;3.30;;;12.40;99.90;;;;;;5009813;28;21028;-74
2022/10/02 02:54:59;;;;;;;5.70;3.40;;;12.40;99.90;;;;;;5008684;28;20509;-74
2022/10/02 02:57:34;;;;;;;5.33;3.40;;;12.40;99.90;;;;;;5009944;28;20451;-74
2022/10/02 03:00:01;;;;;;;4.30;2.90;;;12.40;99.90;;;;;;5009376;28;20469;-74
2022/10/02 03:02:27;;;;;;;6.20;3.40;;;12.40;99.90;;;;;;5009542;28;20951;-74
2022/10/02 03:04:52;;;;;;;8.87;3.50;;;12.40;99.90;;;;;;5013610;28;20468;-74
2022/10/02 03:07:18;;;;;;;10.40;4.40;;;12.40;99.90;;;;;;5011160;28;20282;-74
2022/10/02 03:09:57;;;;;;;7.90;4.43;;;12.40;99.90;;;;;;5015628;28;20198;-74
2022/10/02 03:12:50;;;;;;;5.73;4.00;;;12.40;99.90;;;;;;5012497;28;20209;-74
2022/10/02 03:15:26;;;;;;;6.20;3.13;;;12.40;99.90;;;;;;5007667;28;20470;-74
2022/10/02 03:18:23;;;;;;;7.33;4.10;;;12.40;99.90;;;;;;5012571;28;20452;-74
2022/10/02 03:21:17;;;;;;;9.83;3.90;;;12.40;99.90;;;;;;5014889;28;20517;-74
2022/10/02 03:24:02;;;;;;;6.23;3.83;;;12.40;99.90;;;;;;5012364;28;20441;-74
2022/10/02 03:26:45;;;;;;;5.97;3.13;;;12.40;99.90;;;;;;5011022;28;20449;-73
2022/10/02 03:29:17;;;;;;;10.60;4.00;;;12.40;99.90;;;;;;5012693;28;21030;-73
2022/10/02 03:31:44;;;;;;;18.00;9.20;;;12.40;99.90;;;;;;5012056;28;20514;-74
2022/10/02 03:34:10;;;;;;;14.60;5.53;;;12.40;99.90;;;;;;5013084;28;20445;-74
2022/10/02 03:36:36;;;;;;;7.07;3.47;;;12.40;99.90;;;;;;5012180;28;20820;-74
2022/10/02 03:39:04;;;;;;;5.20;3.57;;;12.40;99.90;;;;;;5011333;28;20445;-73
2022/10/02 03:41:29;;;;;;;8.20;3.87;;;12.40;99.90;;;;;;5013577;28;20547;-74
2022/10/02 03:43:55;;;;;;;11.20;3.67;;;12.40;99.90;;;;;;5023185;28;20439;-76
2022/10/02 03:46:20;;;;;;;6.90;4.43;;;12.40;99.90;;;;;;5016794;28;20685;-75
2022/10/02 03:48:46;;;;;;;8.80;3.57;;;12.50;99.90;;;;;;5026613;28;20554;-75
2022/10/02 03:51:11;;;;;;;8.07;3.23;;;12.40;99.90;;;;;;5016127;28;20183;-75
2022/10/02 03:53:38;;;;;;;11.03;6.27;;;12.50;99.90;;;;;;5011407;28;20183;-75
2022/10/02 03:56:10;;;;;;;10.63;3.37;;;12.40;99.90;;;;;;5012188;28;20219;-74
2022/10/02 03:58:42;;;;;;;9.17;4.20;;;12.40;99.90;;;;;;5009936;28;20433;-74
2022/10/02 04:01:32;;;;;;;8.70;4.43;;;12.40;99.90;;;;;;5010933;28;20981;-74
2022/10/02 04:04:10;;;;;;;10.67;5.00;;;12.40;99.90;;;;;;5010260;28;20453;-74
2022/10/02 04:06:55;;;;;;;6.00;3.70;;;12.40;99.90;;;;;;5012489;28;20441;-74
2022/10/02 04:09:36;;;;;;;8.80;3.50;;;12.40;99.90;;;;;;5012957;28;20493;-74
2022/10/02 04:12:18;;;;;;;12.27;3.40;;;12.50;99.90;;;;;;5011919;28;20879;-74
2022/10/02 04:14:53;;;;;;;8.57;3.50;;;12.40;99.90;;;;;;5009822;28;20539;-74
2022/10/02 04:17:42;;;;;;;5.47;2.83;;;12.40;99.90;;;;;;5010029;28;20523;-73
2022/10/02 04:20:22;;;;;;;7.73;5.47;;;12.40;99.90;;;;;;5032569;28;20442;-73
2022/10/02 04:22:54;;;;;;;3.80;2.80;;;12.50;99.90;;;;;;5011649;28;20461;-73
2022/10/02 04:25:21;;;;;;;9.33;3.77;;;12.50;99.90;;;;;;5011178;28;20484;-73
2022/10/02 04:27:50;;;;;;;4.50;3.23;;;12.40;99.90;;;;;;5009024;28;20450;-73
2022/10/02 04:30:17;;;;;;;4.03;2.93;;;12.40;99.90;;;;;;5005801;28;20438;-74
2022/10/02 04:32:43;;;;;;;7.20;4.07;;;12.50;99.90;;;;;;5011538;28;20464;-72
2022/10/02 04:35:31;;;;;;;4.57;3.00;;;12.40;99.90;;;;;;5009959;28;20856;-73
2022/10/02 04:38:15;;;;;;;7.33;2.80;;;12.40;99.90;;;;;;5011836;28;20175;-73
2022/10/02 04:41:02;;;;;;;9.17;2.93;;;12.40;99.90;;;;;;5024284;28;20447;-73
2022/10/02 04:43:46;;;;;;;5.93;2.63;;;12.40;99.90;;;;;;5008516;28;20471;-72
2022/10/02 04:46:42;;;;;;;7.33;3.30;;;12.40;99.90;;;;;;5006883;28;20457;-72
2022/10/02 04:49:08;;;;;;;9.60;3.57;;;12.40;99.90;;;;;;5009822;28;20768;-73
2022/10/02 04:51:45;;;;;;;6.47;2.67;;;12.40;99.90;;;;;;5010883;28;20437;-74
2022/10/02 04:54:26;;;;;;;5.83;3.03;;;12.40;99.90;;;;;;5011168;28;20216;-75
2022/10/02 04:57:05;;;;;;;5.90;3.27;;;12.40;99.90;;;;;;5008317;28;20526;-75
2022/10/02 04:59:52;;;;;;;7.63;3.60;;;12.50;99.90;;;;;;5007680;28;20961;-74
2022/10/02 05:02:47;;;;;;;9.70;2.77;;;12.40;99.90;;;;;;5008314;28;20461;-74
2022/10/02 05:05:32;;;;;;;7.80;2.87;;;12.40;99.90;;;;;;5011502;28;20870;-74
2022/10/02 05:08:10;;;;;;;6.60;3.40;;;12.40;99.90;;;;;;5010081;28;20939;-74
2022/10/02 05:10:54;;;;;;;7.27;3.67;;;12.40;99.90;;;;;;5011344;28;20816;-74
2022/10/02 05:13:45;;;;;;;4.63;2.80;;;12.40;99.90;;;;;;5016005;28;20440;-73
2022/10/02 05:16:33;;;;;;;7.40;3.40;;;12.40;99.90;;;;;;5007765;28;20465;-74
2022/10/02 05:19:07;;;;;;;6.10;2.87;;;12.40;99.90;;;;;;5002276;28;20438;-74
2022/10/02 05:21:52;;;;;;;5.47;2.87;;;12.40;99.90;;;;;;5016974;28;20436;-73
2022/10/02 05:24:53;;;;;;;6.67;3.23;;;12.40;99.90;;;;;;5025845;28;20819;-74
2022/10/02 05:27:34;;;;;;;8.40;2.97;;;12.40;99.90;;;;;;5001638;28;20473;-73
2022/10/02 05:30:15;;;;;;;6.73;3.03;;;12.40;99.90;;;;;;5008382;28;20448;-73
2022/10/02 05:33:16;;;;;;;3.43;2.60;;;12.30;99.90;;;;;;5008253;28;20500;-75
2022/10/02 05:35:58;;;;;;;4.23;3.27;;;12.30;99.90;;;;;;5008466;28;20463;-73
2022/10/02 05:38:47;;;;;;;6.60;3.07;;;12.30;99.90;;;;;;5009329;28;20441;-73
2022/10/02 05:41:32;;;;;;;5.63;3.00;;;12.30;99.90;;;;;;5008808;28;20460;-74
2022/10/02 05:44:24;;;;;;;5.67;3.17;;;12.30;99.90;;;;;;5010199;28;20495;-73
2022/10/02 05:47:20;;;;;;;5.77;3.17;;;12.20;99.90;;;;;;5004925;28;20473;-73
2022/10/02 05:50:04;;;;;;;9.40;3.40;;;12.40;99.90;;;;;;5009042;28;20466;-74
2022/10/02 05:53:05;;;;;;;5.93;4.10;;;12.40;99.90;;;;;;5008529;28;20441;-74
2022/10/02 05:55:42;;;;;;;10.87;5.63;;;12.40;99.90;;;;;;5007651;28;20500;-74
2022/10/02 05:58:20;;;;;;;12.87;4.70;;;12.40;99.90;;;;;;5008312;28;20443;-73
2022/10/02 06:00:51;;;;;;;8.13;4.17;;;12.40;99.90;;;;;;5010485;28;20548;-73
2022/10/02 06:03:21;;;;;;;6.53;3.20;;;12.10;99.90;;;;;;5006198;28;20466;-73
2022/10/02 06:06:08;;;;;;;8.07;3.43;;;12.40;99.90;;;;;;5008372;28;20506;-74
2022/10/02 06:09:01;;;;;;;5.93;4.27;;;12.40;99.90;;;;;;5007133;28;20442;-73
2022/10/02 06:11:37;;;;;;;3.90;3.37;;;12.50;99.90;;;;;;5010109;28;20438;-73
2022/10/02 06:14:36;;;;;;;7.37;3.80;;;12.50;99.90;;;;;;5010340;28;20460;-74
2022/10/02 06:17:07;;;;;;;5.30;3.80;;;12.60;99.90;;;;;;5009849;28;20446;-73
2022/10/02 06:19:41;;;;;;;7.43;3.80;;;12.60;99.90;;;;;;5008207;28;20474;-73
2022/10/02 06:22:14;;;;;;;7.90;4.20;;;12.60;99.90;;;;;;5009863;28;20858;-72
2022/10/02 06:24:59;;;;;;;4.13;3.47;;;12.60;99.90;;;;;;5023268;28;20516;-73
2022/10/02 06:27:47;;;;;;;7.00;4.00;;;12.70;99.90;;;;;;5016814;28;20437;-72
2022/10/02 06:30:15;;;;;;;8.60;4.27;;;12.70;99.90;;;;;;5016347;28;20998;-73
2022/10/02 06:32:47;;;;;;;5.43;3.57;;;12.70;99.90;;;;;;5019149;28;20440;-72
2022/10/02 06:35:17;;;;;;;8.30;3.67;;;12.70;99.90;;;;;;5018322;28;20571;-72
2022/10/02 06:38:04;;;;;;;6.33;4.90;;;12.70;99.90;;;;;;5014344;28;20464;-72
2022/10/02 06:41:01;;;;;;;9.53;5.30;;;12.70;99.90;;;;;;5014393;28;20437;-71
2022/10/02 06:43:47;;;;;;;10.90;5.10;;;12.60;99.90;;;;;;5009800;28;20473;-71
2022/10/02 06:46:16;;;;;;;11.33;3.93;;;12.70;99.90;;;;;;5014151;28;20997;-71
2022/10/02 06:49:08;;;;;;;8.80;4.33;;;12.70;99.90;;;;;;5011619;28;20802;-68
2022/10/02 06:52:11;;;;;;;6.90;4.07;;;12.70;99.90;;;;;;5015443;28;21008;-73
2022/10/02 06:54:36;;;;;;;8.20;3.33;;;12.80;99.90;;;;;;5011379;28;20475;-73
2022/10/02 06:57:29;;;;;;;12.07;6.33;;;12.80;99.90;;;;;;5013891;28;20433;-70
2022/10/02 07:00:01;;;;;;;5.43;2.90;;;12.80;99.90;;;;;;5012762;28;20202;-69
2022/10/02 07:02:51;;;;;;;7.83;4.53;;;12.90;99.90;;;;;;5016965;28;20511;-70
2022/10/02 07:05:34;;;;;;;6.30;3.77;;;12.90;99.90;;;;;;5012715;28;20484;-70
2022/10/02 07:08:06;;;;;;;10.30;4.37;;;13.00;99.90;;;;;;5012998;28;20433;-70
2022/10/02 07:10:59;;;;;;;9.13;4.40;;;13.00;99.90;;;;;;5012332;28;20456;-70
2022/10/02 07:13:48;;;;;;;7.20;4.60;;;13.10;99.90;;;;;;5014013;28;20447;-70
2022/10/02 07:16:39;;;;;;;9.53;6.70;;;13.10;99.90;;;;;;5015206;28;20467;-70
2022/10/02 07:19:08;;;;;;;7.47;4.40;;;13.20;99.90;;;;;;5014471;28;20464;-70
2022/10/02 07:21:54;;;;;;;6.07;3.97;;;13.20;99.90;;;;;;5019135;28;20794;-71
2022/10/02 07:24:38;;;;;;;4.97;4.50;;;13.20;99.90;;;;;;5021311;28;20839;-69
2022/10/02 07:27:17;;;;;;;7.27;4.10;;;13.20;99.90;;;;;;5017292;28;21066;-70
2022/10/02 07:29:50;;;;;;;10.33;5.20;;;13.30;99.90;;;;;;5015066;28;20440;-70
2022/10/02 07:32:33;;;;;;;5.97;5.37;;;13.30;99.90;;;;;;5012462;28;20437;-70
2022/10/02 07:35:02;;;;;;;8.80;4.50;;;13.30;99.90;;;;;;5012557;28;20477;-70
2022/10/02 07:38:01;;;;;;;7.20;5.03;;;13.20;99.90;;;;;;5017777;28;20433;-70
2022/10/02 07:40:58;;;;;;;5.63;5.00;;;13.20;99.90;;;;;;5017391;28;20492;-71
2022/10/02 07:43:50;;;;;;;5.70;4.60;;;13.30;99.90;;;;;;5020225;28;20968;-68
2022/10/02 07:46:42;;;;;;;9.03;5.50;;;13.30;99.90;;;;;;5035773;28;20491;-70
2022/10/02 07:49:38;;;;;;;8.70;4.77;;;13.30;99.90;;;;;;5013247;28;20512;-72
2022/10/02 07:52:15;;;;;;;8.80;4.90;;;13.50;99.90;;;;;;5024353;28;20424;-72
2022/10/02 07:55:00;;;;;;;9.80;4.27;;;13.60;99.90;;;;;;5037793;28;20806;-74
2022/10/02 07:57:52;;;;;;;4.73;4.13;;;13.80;99.90;;;;;;5020259;28;20437;-75
2022/10/02 08:00:23;;;;;;;5.07;3.90;;;14.00;99.90;;;;;;5006215;28;20485;-74
2022/10/02 08:03:16;;;;;;;6.37;3.47;;;14.10;99.90;;;;;;5015321;28;20518;-74
2022/10/02 08:05:46;;;;;;;3.77;3.40;;;14.10;99.90;;;;;;5020077;28;20553;-75
2022/10/02 08:08:28;;;;;;;9.00;4.00;;;14.10;99.90;;;;;;5024202;28;20448;-74
2022/10/02 08:11:30;;;;;;;3.80;3.20;;;14.20;99.90;;;;;;5015587;28;20444;-75
2022/10/02 08:14:06;;;;;;;3.83;3.40;;;14.50;99.90;;;;;;4995109;28;21035;-74
2022/10/02 08:16:47;;;;;;;7.30;3.80;;;14.60;99.90;;;;;;5024782;28;20458;-75
2022/10/02 08:19:28;;;;;;;8.83;5.07;;;14.80;99.90;;;;;;5019262;28;20465;-75
2022/10/02 08:22:20;;;;;;;8.00;7.17;;;14.90;99.90;;;;;;5024478;28;20460;-75
2022/10/02 08:24:50;;;;;;;6.47;5.80;;;15.10;99.90;;;;;;5022365;28;20467;-75
2022/10/02 08:27:21;;;;;;;10.27;5.20;;;15.10;99.90;;;;;;5021064;28;20525;-75
2022/10/02 08:29:56;;;;;;;13.07;6.20;;;15.10;99.90;;;;;;5019982;28;20435;-75
2022/10/02 08:32:32;;;;;;;5.20;3.83;;;15.00;99.90;;;;;;5027678;28;20523;-75
2022/10/02 08:34:59;;;;;;;8.33;4.30;;;15.00;99.90;;;;;;5016561;28;20858;-75
2022/10/02 08:37:42;;;;;;;5.77;3.80;;;15.10;99.90;;;;;;5024227;28;20954;-75
2022/10/02 08:40:27;;;;;;;6.70;3.70;;;15.00;99.90;;;;;;5014352;28;20465;-75
2022/10/02 08:43:28;;;;;;;5.97;4.77;;;15.00;99.90;;;;;;5023975;28;20966;-75
2022/10/02 08:46:11;;;;;;;4.60;4.20;;;14.80;99.90;;;;;;5020001;28;20465;-74
2022/10/02 08:48:54;;;;;;;6.53;3.77;;;15.10;99.90;;;;;;5041451;28;20953;-75
2022/10/02 08:51:59;;;;;;;6.57;3.93;;;15.50;99.90;;;;;;5009637;28;21008;-75
2022/10/02 08:54:34;;;;;;;7.10;3.80;;;16.60;99.90;;;;;;5022501;28;20500;-75
2022/10/02 08:57:18;;;;;;;5.40;3.97;;;17.80;99.90;;;;;;5014901;28;20499;-75
2022/10/02 09:00:06;;;;;;;3.57;3.27;;;18.90;99.90;;;;;;5018596;28;20797;-75
2022/10/02 09:02:56;;;;;;;5.43;3.90;;;19.40;99.90;;;;;;5021219;28;20464;-76
2022/10/02 09:05:40;;;;;;;4.00;2.83;;;19.60;99.90;;;;;;5015693;28;20481;-75
2022/10/02 09:08:43;;;;;;;4.63;3.23;;;19.70;99.90;;;;;;5011985;28;20818;-76
2022/10/02 09:11:35;;;;;;;7.50;4.67;;;20.00;99.90;;;;;;5020291;28;20464;-76
2022/10/02 09:14:42;;;;;;;8.83;4.80;;;19.80;99.90;;;;;;5011995;28;20516;-77
2022/10/02 09:17:35;;;;;;;5.97;3.47;;;19.80;99.90;;;;;;5019517;28;20548;-76
2022/10/02 09:20:03;;;;;;;5.00;3.47;;;20.10;99.90;;;;;;5011416;28;20447;-76
2022/10/02 09:23:14;;;;;;;4.60;3.53;;;20.20;99.90;;;;;;5023398;28;20950;-76
2022/10/02 09:25:52;;;;;;;5.47;4.47;;;20.40;99.90;;;;;;5019749;28;20808;-76
2022/10/02 09:28:53;;;;;;;6.40;3.33;;;20.30;99.90;;;;;;5020985;28;20443;-76
2022/10/02 09:31:33;;;;;;;3.60;2.60;;;20.10;99.90;;;;;;5033180;28;20510;-76
2022/10/02 09:34:11;;;;;;;4.97;1.87;;;19.60;99.90;;;;;;5019876;28;20887;-76
2022/10/02 09:36:48;;;;;;;4.00;2.13;;;20.10;99.90;;;;;;5019585;28;20445;-76
2022/10/02 09:39:45;;;;;;;1.70;1.53;;;19.80;99.90;;;;;;5023181;28;20518;-76
2022/10/02 09:42:22;;;;;;;2.80;1.63;;;20.00;99.90;;;;;;5013971;28;20469;-76
2022/10/02 09:45:22;;;;;;;3.20;2.33;;;20.00;99.90;;;;;;5022274;28;20572;-76
2022/10/02 09:48:29;;;;;;;3.77;2.70;;;19.70;99.90;;;;;;5019432;28;20907;-76
2022/10/02 09:51:29;;;;;;;1.93;1.50;;;19.60;99.90;;;;;;5016721;28;20468;-75
2022/10/02 09:53:54;;;;;;;4.30;1.90;;;20.10;99.90;;;;;;5018777;28;20994;-76
2022/10/02 09:56:44;;;;;;;1.30;1.20;;;20.00;99.90;;;;;;5023544;28;20444;-78
2022/10/02 09:59:49;;;;;;;5.50;3.87;;;19.60;99.90;;;;;;5016322;28;20541;-78
2022/10/02 10:02:33;;;;;;;2.50;1.53;;;19.50;99.90;;;;;;5007753;28;20461;-77
2022/10/02 10:05:32;;;;;;;9.37;5.83;;;19.00;99.90;;;;;;5019484;28;20457;-78
2022/10/02 10:08:17;;;;;;;5.10;3.30;;;18.80;99.90;;;;;;5011852;28;20445;-78
2022/10/02 10:11:28;;;;;;;5.57;4.07;;;18.70;99.90;;;;;;5006567;28;20465;-78
2022/10/02 10:13:59;;;;;;;11.77;7.70;;;18.40;99.90;;;;;;5022595;28;20444;-77
2022/10/02 10:16:45;;;;;;;5.67;5.00;;;17.90;99.90;;;;;;5022615;28;20579;-76
2022/10/02 10:19:21;;;;;;;10.67;9.10;;;17.60;99.90;;;;;;5017866;28;20538;-76
2022/10/02 10:22:11;;;;;;;7.00;5.50;;;17.20;99.90;;;;;;5021598;28;20853;-77
2022/10/02 10:24:51;;;;;;;5.73;5.13;;;17.00;99.90;;;;;;5020208;28;20493;-77
2022/10/02 10:27:46;;;;;;;5.87;5.00;;;16.70;99.90;;;;;;5023321;28;20433;-77
2022/10/02 10:30:14;;;;;;;5.33;4.80;;;16.60;99.90;;;;;;5024841;28;20775;-77
2022/10/02 10:33:09;;;;;;;5.10;4.60;;;16.30;99.90;;;;;;5021137;28;20438;-77
2022/10/02 10:38:31;;;;;;;5.00;4.60;;;16.20;99.90;;;;;;5018887;28;20543;-77
2022/10/02 10:39:25;;;;;;;6.03;5.43;;;16.10;99.90;;;;;;5014988;28;20448;-77
2022/10/02 10:42:24;;;;;;;7.20;5.90;;;16.10;99.90;;;;;;5017832;28;20449;-77
2022/10/02 10:45:18;;;;;;;5.73;5.23;;;16.10;99.90;;;;;;5023067;28;20819;-77
2022/10/02 10:47:50;;;;;;;6.93;5.20;;;16.10;99.90;;;;;;5014730;28;20438;-77
2022/10/02 10:50:27;;;;;;;8.10;5.67;;;16.00;99.90;;;;;;5017215;28;20439;-77
2022/10/02 10:53:12;;;;;;;6.27;5.47;;;16.10;99.90;;;;;;5019615;28;20857;-77
2022/10/02 10:55:51;;;;;;;5.47;4.60;;;16.10;99.90;;;;;;5018177;28;21066;-77
2022/10/02 10:58:40;;;;;;;6.97;6.27;;;16.00;99.90;;;;;;5022880;28;20441;-77
2022/10/02 11:01:16;;;;;;;6.33;5.83;;;15.90;99.90;;;;;;5016965;28;20442;-77
2022/10/02 11:03:59;;;;;;;6.73;5.20;;;15.80;99.90;;;;;;5026020;28;20965;-77
2022/10/02 11:06:51;;;;;;;5.47;5.00;;;15.80;99.90;;;;;;5027163;28;20433;-77
2022/10/02 11:09:47;;;;;;;5.97;5.47;;;15.60;99.90;;;;;;5016259;28;21033;-77
2022/10/02 11:12:38;;;;;;;4.73;4.10;;;15.70;99.90;;;;;;5016589;28;20440;-77
2022/10/02 11:15:46;;;;;;;5.23;4.73;;;15.70;99.90;;;;;;5012328;28;20527;-77
2022/10/02 11:18:45;;;;;;;4.73;3.57;;;15.70;99.90;;;;;;5004505;28;20520;-77
2022/10/02 11:21:40;;;;;;;3.40;3.20;;;15.80;99.90;;;;;;5020271;28;20441;-77
2022/10/02 11:24:21;;;;;;;4.50;2.93;;;15.80;99.90;;;;;;5016378;28;20441;-77
2022/10/02 11:27:21;;;;;;;3.10;2.70;;;15.90;99.90;;;;;;5023090;28;20472;-77
2022/10/02 11:30:19;;;;;;;2.10;2.00;;;15.90;99.90;;;;;;5014470;28;20433;-77
2022/10/02 11:33:17;;;;;;;3.00;2.40;;;16.00;99.90;;;;;;5016011;28;20535;-77
2022/10/02 11:36:13;;;;;;;12.70;11.10;;;15.90;99.90;;;;;;5017292;28;20554;-77
2022/10/02 11:38:58;;;;;;;3.23;2.93;;;15.70;99.90;;;;;;5015503;28;20511;-77
2022/10/02 11:41:43;;;;;;;2.30;2.20;;;15.60;99.90;;;;;;5022544;28;20450;-77
2022/10/02 11:44:13;;;;;;;2.20;2.10;;;15.50;99.90;;;;;;5013549;28;20448;-77
2022/10/02 11:47:17;;;;;;;2.10;1.93;;;15.50;99.90;;;;;;5016328;28;20460;-77
2022/10/02 11:50:02;;;;;;;4.03;3.43;;;15.50;99.90;;;;;;5000269;28;20433;-77
2022/10/02 11:52:49;;;;;;;2.23;2.13;;;15.50;99.90;;;;;;5019841;28;20428;-77
2022/10/02 11:55:30;;;;;;;2.33;2.13;;;15.50;99.90;;;;;;5022084;28;20465;-77
2022/10/02 11:57:55;;;;;;;2.33;2.23;;;15.40;99.90;;;;;;5009616;28;20432;-76
2022/10/02 12:00:50;;;;;;;2.20;2.10;;;15.20;99.90;;;;;;5017713;28;20437;-77
2022/10/02 12:03:30;;;;;;;2.40;2.20;;;14.90;99.90;;;;;;5016261;28;20660;-76
2022/10/02 12:06:16;;;;;;;2.90;2.70;;;14.60;99.90;;;;;;5015823;28;20489;-77
2022/10/02 12:08:56;;;;;;;2.70;2.27;;;14.60;99.90;;;;;;5022849;28;20440;-77
2022/10/02 12:11:47;;;;;;;2.27;2.17;;;14.70;99.90;;;;;;5025109;28;20867;-76
2022/10/02 12:14:32;;;;;;;2.67;2.50;;;14.80;99.90;;;;;;5022533;28;20455;-76
2022/10/02 12:17:18;;;;;;;1.80;1.70;;;14.90;99.90;;;;;;5002173;28;20471;-75
2022/10/02 12:28:58;;;;;;;1.97;1.87;;;14.60;99.90;;;;;;5027586;28;20488;-76
2022/10/02 12:32:07;;;;;;;1.67;1.57;;;14.60;99.90;;;;;;5017514;28;20435;-77
2022/10/02 12:34:47;;;;;;;2.20;2.00;;;14.50;99.90;;;;;;5013119;28;20807;-76
2022/10/02 12:37:33;;;;;;;1.30;1.20;;;14.40;99.90;;;;;;5020640;28;20989;-76
2022/10/02 12:40:08;;;;;;;2.80;1.67;;;14.40;99.90;;;;;;5017640;28;20442;-75
2022/10/02 12:42:50;;;;;;;1.70;1.60;;;14.40;99.90;;;;;;5021196;28;20456;-75
2022/10/02 12:45:42;;;;;;;2.27;1.80;;;14.30;99.90;;;;;;5024436;28;20809;-76
2022/10/02 12:48:17;;;;;;;1.77;1.67;;;14.40;99.90;;;;;;4998679;28;20492;-75
2022/10/02 12:51:11;;;;;;;2.87;1.40;;;14.40;99.90;;;;;;5022096;28;20475;-76
2022/10/02 12:53:37;;;;;;;2.10;2.00;;;14.40;99.90;;;;;;5014635;28;20931;-76
2022/10/02 12:56:21;;;;;;;2.13;1.60;;;14.40;99.90;;;;;;5020372;28;20473;-75
2022/10/02 12:58:54;;;;;;;2.20;1.50;;;14.40;99.90;;;;;;5026055;28;20189;-74
2022/10/02 13:01:40;;;;;;;1.93;1.47;;;14.50;99.90;;;;;;5019802;28;20874;-75
2022/10/02 13:04:15;;;;;;;2.50;1.60;;;14.20;99.90;;;;;;5016973;28;20458;-75
2022/10/02 13:06:54;;;;;;;3.97;1.37;;;14.10;99.90;;;;;;5021988;28;20436;-75
2022/10/02 13:09:54;;;;;;;2.03;1.50;;;14.10;99.90;;;;;;5019182;28;20866;-74
2022/10/02 13:12:33;;;;;;;2.53;2.30;;;14.10;99.90;;;;;;5018585;28;20527;-76
2022/10/02 13:15:32;;;;;;;6.33;1.47;;;14.20;99.90;;;;;;5019743;28;20475;-75
2022/10/02 13:18:19;;;;;;;1.93;1.30;;;14.10;99.90;;;;;;5023512;28;20444;-76
2022/10/02 13:21:00;;;;;;;1.00;0.90;;;14.00;99.90;;;;;;5020698;28;20449;-75
2022/10/02 13:23:47;;;;;;;1.40;1.30;;;14.10;99.90;;;;;;5016542;28;20468;-75
2022/10/02 13:26:48;;;;;;;1.70;1.60;;;14.20;99.90;;;;;;5014471;28;20506;-75
2022/10/02 13:29:43;;;;;;;5.20;1.10;;;14.30;99.90;;;;;;5019129;28;20493;-75
2022/10/02 13:32:20;;;;;;;1.37;1.27;;;14.30;99.90;;;;;;5007953;28;20437;-76
2022/10/02 13:35:16;;;;;;;1.53;1.13;;;14.30;99.90;;;;;;5022189;28;20997;-76
2022/10/02 13:38:16;;;;;;;1.10;0.80;;;14.40;99.90;;;;;;5021111;28;20448;-76
2022/10/02 13:40:49;;;;;;;0.87;0.87;;;14.50;99.90;;;;;;5019589;28;20445;-75
2022/10/02 13:43:33;;;;;;;1.07;0.80;;;14.70;99.90;;;;;;5016731;28;20473;-75
2022/10/02 13:46:15;;;;;;;1.13;0.97;;;14.90;99.90;;;;;;5013758;28;20457;-76
2022/10/02 13:49:05;;;;;;;1.00;0.90;;;15.00;99.90;;;;;;5019615;28;20456;-75
2022/10/02 13:51:52;;;;;;;1.40;0.70;;;15.30;99.90;;;;;;5022910;28;20906;-76
2022/10/02 13:54:28;;;;;;;0.60;0.60;;;15.70;99.90;;;;;;5011373;28;20469;-75
2022/10/02 13:57:14;;;;;;;1.70;1.20;;;15.80;99.90;;;;;;5017490;28;20438;-75
2022/10/02 13:59:56;;;;;;;0.80;0.80;;;16.00;99.90;;;;;;5016514;28;20756;-76
2022/10/02 14:02:38;;;;;;;2.37;1.93;;;15.60;99.90;;;;;;5021303;28;20851;-76
2022/10/02 14:05:42;;;;;;;1.90;1.60;;;15.50;99.90;;;;;;5000010;28;20569;-76
2022/10/02 14:08:26;;;;;;;1.20;1.10;;;15.80;99.90;;;;;;5011953;28;20508;-76
2022/10/02 14:11:03;;;;;;;1.73;0.90;;;15.60;99.90;;;;;;5005769;28;20484;-76
2022/10/02 14:13:41;;;;;;;1.60;1.50;;;15.50;99.90;;;;;;5004334;28;20449;-76